createdAt,value
2018-09-23T00:01:01.959Z,1.60
2018-09-23T00:03:30.605Z,1.87
2018-09-23T00:05:59.573Z,1.87
2018-09-23T00:08:28.212Z,2.00
2018-09-23T00:10:56.913Z,2.20
2018-09-23T00:13:25.600Z,1.90
2018-09-23T00:15:54.281Z,1.83
2018-09-23T00:18:22.928Z,2.07
2018-09-23T00:20:52.627Z,1.63
2018-09-23T00:23:21.273Z,2.27
2018-09-23T00:25:49.945Z,2.07
2018-09-23T00:28:18.702Z,2.30
2018-09-23T00:30:47.368Z,2.30
2018-09-23T00:33:16.005Z,1.87
2018-09-23T00:35:44.668Z,2.40
2018-09-23T00:38:13.391Z,1.63
2018-09-23T00:40:42.081Z,2.00
2018-09-23T00:43:10.732Z,2.10
2018-09-23T00:45:39.388Z,2.40
2018-09-23T00:48:08.057Z,2.00
2018-09-23T00:50:36.710Z,2.00
2018-09-23T00:53:05.364Z,2.10
2018-09-23T00:55:34.048Z,2.30
2018-09-23T00:58:02.697Z,2.30
2018-09-23T01:00:31.349Z,2.27
2018-09-23T01:03:00.248Z,2.30
2018-09-23T01:05:28.894Z,2.50
2018-09-23T01:07:57.548Z,1.97
2018-09-23T01:10:26.191Z,2.57
2018-09-23T01:12:55.295Z,2.20
2018-09-23T01:15:23.928Z,2.20
2018-09-23T01:17:52.568Z,1.93
2018-09-23T01:20:21.259Z,2.53
2018-09-23T01:22:49.968Z,2.10
2018-09-23T01:25:18.605Z,2.17
2018-09-23T01:27:47.297Z,2.53
2018-09-23T01:30:15.954Z,2.30
2018-09-23T01:32:44.605Z,2.30
2018-09-23T01:35:13.244Z,2.13
2018-09-23T01:37:41.885Z,1.90
2018-09-23T01:40:10.548Z,2.23
2018-09-23T01:42:39.876Z,2.10
2018-09-23T01:45:08.821Z,2.23
2018-09-23T01:47:37.459Z,2.00
2018-09-23T01:50:06.556Z,2.00
2018-09-23T01:52:35.868Z,2.27
2018-09-23T01:55:04.824Z,2.30
2018-09-23T01:57:33.508Z,2.10
2018-09-23T02:00:02.167Z,2.13
2018-09-23T02:02:30.800Z,2.20
2018-09-23T02:04:59.439Z,2.20
2018-09-23T02:07:28.080Z,2.00
2018-09-23T02:09:56.901Z,2.03
2018-09-23T02:12:25.552Z,2.17
2018-09-23T02:14:54.400Z,2.10
2018-09-23T02:17:23.053Z,2.10
2018-09-23T02:19:51.693Z,2.20
2018-09-23T02:22:20.385Z,2.00
2018-09-23T02:24:49.069Z,2.30
2018-09-23T02:27:17.936Z,2.03
2018-09-23T02:29:46.580Z,1.97
2018-09-23T02:32:15.230Z,2.00
2018-09-23T02:34:43.908Z,1.50
2018-09-23T02:37:12.565Z,2.10
2018-09-23T02:39:41.196Z,1.80
2018-09-23T02:42:09.833Z,1.77
2018-09-23T02:44:38.460Z,1.80
2018-09-23T02:47:07.339Z,2.00
2018-09-23T02:49:36.284Z,1.70
2018-09-23T02:52:04.945Z,1.97
2018-09-23T02:54:33.601Z,1.80
2018-09-23T02:57:02.259Z,1.77
2018-09-23T02:59:30.919Z,1.60
2018-09-23T03:01:59.574Z,1.70
2018-09-23T03:04:28.219Z,1.60
2018-09-23T03:06:56.855Z,1.77
2018-09-23T03:09:25.492Z,1.80
2018-09-23T03:11:54.122Z,1.70
2018-09-23T03:14:22.769Z,1.50
2018-09-23T03:16:51.412Z,1.70
2018-09-23T03:19:20.057Z,1.67
2018-09-23T03:21:48.732Z,1.37
2018-09-23T03:24:17.402Z,1.43
2018-09-23T03:26:46.050Z,1.80
2018-09-23T03:29:14.798Z,1.53
2018-09-23T03:31:43.393Z,1.40
2018-09-23T03:34:12.028Z,1.30
2018-09-23T03:36:40.677Z,1.50
2018-09-23T03:39:09.811Z,1.40
2018-09-23T03:41:38.464Z,1.77
2018-09-23T03:44:07.571Z,1.20
2018-09-23T03:46:36.216Z,1.40
2018-09-23T03:49:04.929Z,1.50
2018-09-23T03:51:33.590Z,1.37
2018-09-23T03:54:02.277Z,1.07
2018-09-23T03:56:30.948Z,1.27
2018-09-23T03:58:59.613Z,1.57
2018-09-23T04:01:28.292Z,1.40
2018-09-23T04:03:56.941Z,1.40
2018-09-23T04:06:25.581Z,1.27
2018-09-23T04:08:54.280Z,1.20
2018-09-23T04:11:22.932Z,1.17
2018-09-23T04:13:51.595Z,1.43
2018-09-23T04:16:20.240Z,1.10
2018-09-23T04:18:48.898Z,1.00
2018-09-23T04:21:17.576Z,1.20
2018-09-23T04:23:49.145Z,1.17
2018-09-23T04:26:17.812Z,1.30
2018-09-23T04:28:46.456Z,1.40
2018-09-23T04:31:15.129Z,1.20
2018-09-23T04:33:43.788Z,1.00
2018-09-23T04:36:12.423Z,1.10
2018-09-23T04:38:41.281Z,1.00
2018-09-23T04:41:09.957Z,0.90
2018-09-23T04:43:38.608Z,1.10
2018-09-23T04:46:07.321Z,1.10
2018-09-23T04:48:35.979Z,1.07
2018-09-23T04:51:04.624Z,0.97
2018-09-23T04:53:33.320Z,1.10
2018-09-23T04:56:01.981Z,1.10
2018-09-23T04:58:30.625Z,0.90
2018-09-23T05:00:59.300Z,0.87
2018-09-23T05:03:27.972Z,1.10
2018-09-23T05:05:56.633Z,1.13
2018-09-23T05:08:25.281Z,0.90
2018-09-23T05:10:53.925Z,1.00
2018-09-23T05:13:22.621Z,0.70
2018-09-23T05:15:51.288Z,0.77
2018-09-23T05:18:19.948Z,0.90
2018-09-23T05:20:48.609Z,0.93
2018-09-23T05:23:17.268Z,0.80
2018-09-23T05:25:46.168Z,0.80
2018-09-23T05:28:14.833Z,0.97
2018-09-23T05:30:43.469Z,0.80
2018-09-23T05:33:12.100Z,0.90
2018-09-23T05:35:40.736Z,1.00
2018-09-23T05:38:09.380Z,0.87
2018-09-23T05:40:38.077Z,0.70
2018-09-23T05:43:06.773Z,0.90
2018-09-23T05:45:35.412Z,0.90
2018-09-23T05:48:04.049Z,0.90
2018-09-23T05:50:32.744Z,0.80
2018-09-23T05:53:01.427Z,0.80
2018-09-23T05:55:30.116Z,0.90
2018-09-23T05:57:58.797Z,0.90
2018-09-23T06:00:28.998Z,0.90
2018-09-23T06:02:57.639Z,0.90
2018-09-23T06:05:26.318Z,0.80
2018-09-23T06:07:54.976Z,0.90
2018-09-23T06:10:23.668Z,0.80
2018-09-23T06:12:52.353Z,0.80
2018-09-23T06:15:20.990Z,0.77
2018-09-23T06:17:49.641Z,0.90
2018-09-23T06:20:18.284Z,0.93
2018-09-23T06:22:46.966Z,1.00
2018-09-23T06:25:15.672Z,0.80
2018-09-23T06:27:44.277Z,0.90
2018-09-23T06:30:12.968Z,0.90
2018-09-23T06:32:41.625Z,0.90
2018-09-23T06:35:10.460Z,1.00
2018-09-23T06:37:39.096Z,0.90
2018-09-23T06:40:07.802Z,0.80
2018-09-23T06:42:36.470Z,1.00
2018-09-23T06:45:05.638Z,0.93
2018-09-23T06:47:34.320Z,0.90
2018-09-23T06:50:02.973Z,0.80
2018-09-23T06:52:31.624Z,0.83
2018-09-23T06:55:00.280Z,0.83
2018-09-23T06:57:28.936Z,0.70
2018-09-23T06:59:57.564Z,0.90
2018-09-23T07:02:26.220Z,1.13
2018-09-23T07:04:54.931Z,0.80
2018-09-23T07:07:23.529Z,0.80
2018-09-23T07:09:52.172Z,1.00
2018-09-23T07:12:20.824Z,0.90
2018-09-23T07:14:49.480Z,0.90
2018-09-23T07:17:18.144Z,0.87
2018-09-23T07:19:46.784Z,0.77
2018-09-23T07:22:15.424Z,0.93
2018-09-23T07:24:44.123Z,0.77
2018-09-23T07:27:12.783Z,0.80
2018-09-23T07:29:41.476Z,0.80
2018-09-23T07:32:10.136Z,1.10
2018-09-23T07:34:38.783Z,0.90
2018-09-23T07:37:07.502Z,0.90
2018-09-23T07:39:36.194Z,0.80
2018-09-23T07:42:04.776Z,0.80
2018-09-23T07:44:33.424Z,0.80
2018-09-23T07:47:02.076Z,0.80
2018-09-23T07:49:30.704Z,0.77
2018-09-23T07:51:59.352Z,0.90
2018-09-23T07:54:28.008Z,0.73
2018-09-23T07:56:57.140Z,0.80
2018-09-23T07:59:25.817Z,0.80
2018-09-23T08:01:54.453Z,0.83
2018-09-23T08:04:23.085Z,0.90
2018-09-23T08:06:51.728Z,0.90
2018-09-23T08:09:20.393Z,0.80
2018-09-23T08:11:49.092Z,0.90
2018-09-23T08:14:17.864Z,0.87
2018-09-23T08:16:46.404Z,0.90
2018-09-23T08:19:15.101Z,0.90
2018-09-23T08:21:43.712Z,0.80
2018-09-23T08:24:12.360Z,0.77
2018-09-23T08:26:41.092Z,0.77
2018-09-23T08:29:09.680Z,0.80
2018-09-23T08:31:38.342Z,0.90
2018-09-23T08:34:07.280Z,0.70
2018-09-23T08:36:36.171Z,0.80
2018-09-23T08:39:06.511Z,0.80
2018-09-23T08:41:35.394Z,0.90
2018-09-23T08:44:04.071Z,1.00
2018-09-23T08:46:32.710Z,0.90
2018-09-23T08:49:01.357Z,1.03
2018-09-23T08:51:30.020Z,1.00
2018-09-23T08:53:58.724Z,1.00
2018-09-23T08:56:27.373Z,0.90
2018-09-23T08:58:56.058Z,0.87
2018-09-23T09:01:24.718Z,1.10
2018-09-23T09:03:53.369Z,1.00
2018-09-23T09:06:22.040Z,0.90
2018-09-23T09:08:50.708Z,1.00
2018-09-23T09:11:19.362Z,0.97
2018-09-23T09:13:48.252Z,0.80
2018-09-23T09:16:16.921Z,0.77
2018-09-23T09:18:45.776Z,0.87
2018-09-23T09:21:14.240Z,0.90
2018-09-23T09:23:42.913Z,0.90
2018-09-23T09:26:11.552Z,1.10
2018-09-23T09:28:40.684Z,1.00
2018-09-23T09:31:09.365Z,0.90
2018-09-23T09:33:37.994Z,1.07
2018-09-23T09:36:06.700Z,0.70
2018-09-23T09:38:35.751Z,0.87
2018-09-23T09:41:04.353Z,1.00
2018-09-23T09:43:32.984Z,1.00
2018-09-23T09:46:01.624Z,1.00
2018-09-23T09:48:30.264Z,1.10
2018-09-23T09:50:58.900Z,1.10
2018-09-23T09:53:27.618Z,0.97
2018-09-23T09:55:56.225Z,1.00
2018-09-23T09:58:24.904Z,0.90
2018-09-23T10:00:53.564Z,0.90
2018-09-23T10:03:22.202Z,0.73
2018-09-23T10:05:50.865Z,1.00
2018-09-23T10:08:19.530Z,1.03
2018-09-23T10:10:48.217Z,1.00
2018-09-23T10:13:16.871Z,0.90
2018-09-23T10:15:45.522Z,0.90
2018-09-23T10:18:14.180Z,0.90
2018-09-23T10:20:42.813Z,1.07
2018-09-23T10:23:11.511Z,0.90
2018-09-23T10:25:40.123Z,1.10
2018-09-23T10:28:08.768Z,0.90
2018-09-23T10:30:37.411Z,0.83
2018-09-23T10:33:06.085Z,1.00
2018-09-23T10:35:34.752Z,1.10
2018-09-23T10:38:03.392Z,1.10
2018-09-23T10:40:32.033Z,0.97
2018-09-23T10:43:00.679Z,1.00
2018-09-23T10:45:29.344Z,1.10
2018-09-23T10:47:58.007Z,1.20
2018-09-23T10:50:26.665Z,1.10
2018-09-23T10:52:55.313Z,0.73
2018-09-23T10:55:23.963Z,1.30
2018-09-23T10:57:52.610Z,0.90
2018-09-23T11:00:21.414Z,1.07
2018-09-23T11:02:50.082Z,1.20
2018-09-23T11:05:18.744Z,1.23
2018-09-23T11:07:47.445Z,1.10
2018-09-23T11:10:16.100Z,0.97
2018-09-23T11:12:44.852Z,1.20
2018-09-23T11:15:13.523Z,1.20
2018-09-23T11:17:42.144Z,1.10
2018-09-23T11:20:11.042Z,0.80
2018-09-23T11:22:39.687Z,1.20
2018-09-23T11:25:08.384Z,1.50
2018-09-23T11:27:37.077Z,1.10
2018-09-23T11:30:05.810Z,1.20
2018-09-23T11:32:34.449Z,1.30
2018-09-23T11:35:03.085Z,1.00
2018-09-23T11:37:31.720Z,1.33
2018-09-23T11:40:00.378Z,1.40
2018-09-23T11:42:29.024Z,1.20
2018-09-23T11:44:57.673Z,1.37
2018-09-23T11:47:26.319Z,1.20
2018-09-23T11:50:01.888Z,1.20
2018-09-23T11:52:30.567Z,1.00
2018-09-23T11:54:59.213Z,1.20
2018-09-23T11:57:27.859Z,1.17
2018-09-23T11:59:56.511Z,1.30
2018-09-23T12:02:25.404Z,1.17
2018-09-23T12:04:54.043Z,1.20
2018-09-23T12:07:22.688Z,1.10
2018-09-23T12:09:51.344Z,1.40
2018-09-23T12:12:19.996Z,1.23
2018-09-23T12:14:48.692Z,1.23
2018-09-23T12:17:17.296Z,1.33
2018-09-23T12:19:45.928Z,1.20
2018-09-23T12:22:14.573Z,1.20
2018-09-23T12:24:43.269Z,1.40
2018-09-23T12:27:11.925Z,1.30
2018-09-23T12:29:40.598Z,1.20
2018-09-23T12:32:09.253Z,1.70
2018-09-23T12:34:37.897Z,1.50
2018-09-23T12:37:06.675Z,1.37
2018-09-23T12:39:35.413Z,1.53
2018-09-23T12:42:04.032Z,1.50
2018-09-23T12:44:32.669Z,1.47
2018-09-23T12:47:01.317Z,1.30
2018-09-23T12:49:30.006Z,1.60
2018-09-23T12:51:59.024Z,1.27
2018-09-23T12:54:27.684Z,1.43
2018-09-23T12:56:56.528Z,1.30
2018-09-23T12:59:25.185Z,1.20
2018-09-23T13:01:53.825Z,1.60
2018-09-23T13:04:22.468Z,1.40
2018-09-23T13:06:51.128Z,1.53
2018-09-23T13:09:19.779Z,1.30
2018-09-23T13:11:48.416Z,1.47
2018-09-23T13:14:17.077Z,1.57
2018-09-23T13:16:45.725Z,1.23
2018-09-23T13:19:14.424Z,1.50
2018-09-23T13:21:43.040Z,1.50
2018-09-23T13:24:11.692Z,1.50
2018-09-23T13:26:40.405Z,1.50
2018-09-23T13:29:09.111Z,1.33
2018-09-23T13:31:37.780Z,1.30
2018-09-23T13:34:06.705Z,1.67
2018-09-23T13:36:35.400Z,1.50
2018-09-23T13:39:05.272Z,1.53
2018-09-23T13:44:08.952Z,1.50
2018-09-23T13:46:37.679Z,1.53
2018-09-23T13:49:06.300Z,1.50
2018-09-23T13:51:34.955Z,1.47
2018-09-23T13:54:03.604Z,1.30
2018-09-23T13:56:32.252Z,1.60
2018-09-23T13:59:00.914Z,1.60
2018-09-23T14:01:29.557Z,1.27
2018-09-23T14:03:58.202Z,1.70
2018-09-23T14:06:26.848Z,1.37
2018-09-23T14:08:55.506Z,1.70
2018-09-23T14:11:24.161Z,1.60
2018-09-23T14:13:52.812Z,1.70
2018-09-23T14:16:21.512Z,1.40
2018-09-23T14:18:50.166Z,1.50
2018-09-23T14:21:19.118Z,1.70
2018-09-23T14:23:47.741Z,1.70
2018-09-23T14:26:16.402Z,1.20
2018-09-23T14:28:45.039Z,1.70
2018-09-23T14:31:13.686Z,1.60
2018-09-23T14:33:42.328Z,1.50
2018-09-23T14:36:10.993Z,1.40
2018-09-23T14:38:39.629Z,1.67
2018-09-23T14:41:08.280Z,1.63
2018-09-23T14:43:36.932Z,1.80
2018-09-23T14:46:05.587Z,1.50
2018-09-23T14:48:34.284Z,1.50
2018-09-23T14:51:02.941Z,1.60
2018-09-23T14:53:31.581Z,1.50
2018-09-23T14:56:00.240Z,1.63
2018-09-23T14:58:28.905Z,1.77
2018-09-23T15:00:57.549Z,1.47
2018-09-23T15:03:26.244Z,1.80
2018-09-23T15:05:54.905Z,1.90
2018-09-23T15:08:23.546Z,1.83
2018-09-23T15:10:52.224Z,1.50
2018-09-23T15:13:20.876Z,1.50
2018-09-23T15:15:49.939Z,1.60
2018-09-23T15:18:18.641Z,1.70
2018-09-23T15:20:47.297Z,1.90
2018-09-23T15:23:15.940Z,1.60
2018-09-23T15:25:44.585Z,1.73
2018-09-23T15:28:13.257Z,1.90
2018-09-23T15:30:41.919Z,1.80
2018-09-23T15:33:10.560Z,2.00
2018-09-23T15:35:39.217Z,1.77
2018-09-23T15:38:07.876Z,1.60
2018-09-23T15:40:36.529Z,1.67
2018-09-23T15:43:05.420Z,1.57
2018-09-23T15:45:34.076Z,2.00
2018-09-23T15:48:02.724Z,1.70
2018-09-23T15:50:31.364Z,1.60
2018-09-23T15:53:00.010Z,1.60
2018-09-23T15:55:28.709Z,2.00
2018-09-23T15:57:57.348Z,1.60
2018-09-23T16:00:25.988Z,1.87
2018-09-23T16:02:54.638Z,1.70
2018-09-23T16:05:23.407Z,1.63
2018-09-23T16:07:52.058Z,1.90
2018-09-23T16:10:20.680Z,1.90
2018-09-23T16:12:49.371Z,2.10
2018-09-23T16:15:18.044Z,1.77
2018-09-23T16:17:46.692Z,1.83
2018-09-23T16:20:15.354Z,1.87
2018-09-23T16:22:44.003Z,1.80
2018-09-23T16:25:12.647Z,2.00
2018-09-23T16:27:41.333Z,1.70
2018-09-23T16:30:10.567Z,1.77
2018-09-23T16:32:39.394Z,1.70
2018-09-23T16:35:08.433Z,1.90
2018-09-23T16:37:37.092Z,1.80
2018-09-23T16:40:05.739Z,1.70
2018-09-23T16:42:34.422Z,1.90
2018-09-23T16:45:03.056Z,1.80
2018-09-23T16:47:31.712Z,1.67
2018-09-23T16:50:00.392Z,1.70
2018-09-23T16:52:29.047Z,1.60
2018-09-23T16:54:57.690Z,2.10
2018-09-23T16:57:26.525Z,1.70
2018-09-23T16:59:55.181Z,1.67
2018-09-23T17:02:23.932Z,1.67
2018-09-23T17:04:52.573Z,1.90
2018-09-23T17:07:21.295Z,2.03
2018-09-23T17:09:50.136Z,2.40
2018-09-23T17:12:18.794Z,1.90
2018-09-23T17:14:47.471Z,2.00
2018-09-23T17:17:16.128Z,1.97
2018-09-23T17:19:44.764Z,1.73
2018-09-23T17:22:13.480Z,1.93
2018-09-23T17:24:42.153Z,2.43
2018-09-23T17:27:10.800Z,1.90
2018-09-23T17:29:39.469Z,2.00
2018-09-23T17:32:08.132Z,1.90
2018-09-23T17:34:36.974Z,1.87
2018-09-23T17:37:05.648Z,1.93
2018-09-23T17:39:34.312Z,1.80
2018-09-23T17:42:02.976Z,1.70
2018-09-23T17:44:31.623Z,2.40
2018-09-23T17:47:00.320Z,2.10
2018-09-23T17:49:28.986Z,2.10
2018-09-23T17:51:57.640Z,2.00
2018-09-23T17:54:26.290Z,1.90
2018-09-23T17:56:54.957Z,2.10
2018-09-23T17:59:23.597Z,2.20
2018-09-23T18:01:52.357Z,2.00
2018-09-23T18:04:20.952Z,1.90
2018-09-23T18:06:49.620Z,2.30
2018-09-23T18:09:18.277Z,1.90
2018-09-23T18:11:46.910Z,2.07
2018-09-23T18:14:15.581Z,2.27
2018-09-23T18:16:44.232Z,1.90
2018-09-23T18:19:12.877Z,1.80
2018-09-23T18:21:41.562Z,1.70
2018-09-23T18:24:10.501Z,2.13
2018-09-23T18:26:39.140Z,1.80
2018-09-23T18:29:07.778Z,2.07
2018-09-23T18:31:36.604Z,1.90
2018-09-23T18:34:05.260Z,1.93
2018-09-23T18:36:33.909Z,2.00
2018-09-23T18:39:02.636Z,2.03
2018-09-23T18:41:31.328Z,1.97
2018-09-23T18:43:59.996Z,1.97
2018-09-23T18:46:28.633Z,1.87
2018-09-23T18:48:57.276Z,2.00
2018-09-23T18:51:25.924Z,2.20
2018-09-23T18:53:59.808Z,2.07
2018-09-23T18:56:28.445Z,1.90
2018-09-23T18:58:57.089Z,2.17
2018-09-23T19:01:25.741Z,2.20
2018-09-23T19:03:54.465Z,1.80
2018-09-23T19:06:23.084Z,1.97
2018-09-23T19:08:51.748Z,1.90
2018-09-23T19:11:20.413Z,2.10
2018-09-23T19:13:52.911Z,2.20
2018-09-23T19:16:26.734Z,1.83
2018-09-23T19:18:56.437Z,1.80
2018-09-23T19:21:25.998Z,2.03
2018-09-23T19:23:54.973Z,2.00
2018-09-23T19:26:23.683Z,2.10
2018-09-23T19:28:52.345Z,1.97
2018-09-23T19:31:21.003Z,2.00
2018-09-23T19:33:49.688Z,2.00
2018-09-23T19:36:18.331Z,2.00
2018-09-23T19:38:47.100Z,2.00
2018-09-23T19:41:15.797Z,2.00
2018-09-23T19:43:44.656Z,2.00
2018-09-23T19:46:13.308Z,2.07
2018-09-23T19:48:41.955Z,1.97
2018-09-23T19:51:10.608Z,1.90
2018-09-23T19:53:39.312Z,2.07
2018-09-23T19:56:07.953Z,2.13
2018-09-23T19:58:36.621Z,1.77
2018-09-23T20:01:05.279Z,1.97
2018-09-23T20:03:33.929Z,2.37
2018-09-23T20:06:02.621Z,2.00
2018-09-23T20:08:31.286Z,1.90
2018-09-23T20:10:59.933Z,1.93
2018-09-23T20:13:28.578Z,2.00
2018-09-23T20:15:57.233Z,2.00
2018-09-23T20:18:25.891Z,1.83
2018-09-23T20:20:54.568Z,2.20
2018-09-23T20:23:23.255Z,1.83
2018-09-23T20:25:52.127Z,2.10
2018-09-23T20:28:20.866Z,2.00
2018-09-23T20:30:49.552Z,2.10
2018-09-23T20:33:18.196Z,2.20
2018-09-23T20:35:46.854Z,2.13
2018-09-23T20:38:15.522Z,2.20
2018-09-23T20:40:44.189Z,2.20
2018-09-23T20:43:12.835Z,2.10
2018-09-23T20:45:41.472Z,2.10
2018-09-23T20:48:10.125Z,2.23
2018-09-23T20:50:38.764Z,2.17
2018-09-23T20:53:07.608Z,2.33
2018-09-23T20:55:36.273Z,2.17
2018-09-23T20:58:04.933Z,2.13
2018-09-23T21:00:33.594Z,2.23
2018-09-23T21:03:02.290Z,2.60
2018-09-23T21:05:31.199Z,2.03
2018-09-23T21:07:59.832Z,2.07
2018-09-23T21:10:31.504Z,2.27
2018-09-23T21:13:00.140Z,1.93
2018-09-23T21:15:28.801Z,2.13
2018-09-23T21:17:57.501Z,2.37
2018-09-23T21:20:26.175Z,2.30
2018-09-23T21:22:54.824Z,2.40
2018-09-23T21:25:23.487Z,2.63
2018-09-23T21:27:52.161Z,2.50
2018-09-23T21:30:20.800Z,2.60
2018-09-23T21:32:49.439Z,2.57
2018-09-23T21:35:18.076Z,2.77
2018-09-23T21:37:46.713Z,2.13
2018-09-23T21:40:15.353Z,2.73
2018-09-23T21:42:43.999Z,2.83
2018-09-23T21:45:12.655Z,2.87
2018-09-23T21:47:41.344Z,2.70
2018-09-23T21:50:10.004Z,2.90
2018-09-23T21:52:38.684Z,2.70
2018-09-23T21:55:07.343Z,2.50
2018-09-23T21:57:36.016Z,2.73
2018-09-23T22:00:06.456Z,3.00
2018-09-23T22:02:35.130Z,2.83
2018-09-23T22:05:03.776Z,2.83
2018-09-23T22:07:32.426Z,2.83
2018-09-23T22:10:01.077Z,3.17
2018-09-23T22:12:29.732Z,3.00
2018-09-23T22:14:58.388Z,3.23
2018-09-23T22:17:27.056Z,2.90
2018-09-23T22:19:55.729Z,3.10
2018-09-23T22:22:24.430Z,3.63
2018-09-23T22:24:53.328Z,3.27
2018-09-23T22:27:21.968Z,3.27
2018-09-23T22:29:50.620Z,3.00
2018-09-23T22:32:19.352Z,3.40
2018-09-23T22:34:48.016Z,3.23
2018-09-23T22:37:16.665Z,3.40
2018-09-23T22:39:45.328Z,3.60
2018-09-23T22:42:13.994Z,3.60
2018-09-23T22:44:42.651Z,3.40
2018-09-23T22:47:11.340Z,3.40
2018-09-23T22:49:40.001Z,3.63
2018-09-23T22:52:08.650Z,3.67
2018-09-23T22:54:37.306Z,3.17
2018-09-23T22:57:05.985Z,3.20
2018-09-23T22:59:34.676Z,3.83
2018-09-23T23:02:03.347Z,3.80
2018-09-23T23:04:31.980Z,3.23
2018-09-23T23:07:00.656Z,3.20
2018-09-23T23:09:29.325Z,3.30
2018-09-23T23:11:57.981Z,3.50
2018-09-23T23:14:26.641Z,3.40
2018-09-23T23:16:55.301Z,3.40
2018-09-23T23:19:23.973Z,3.30
2018-09-23T23:21:52.608Z,3.40
2018-09-23T23:24:21.508Z,3.50
2018-09-23T23:26:50.171Z,3.30
2018-09-23T23:29:19.149Z,3.00
2018-09-23T23:31:47.873Z,3.60
2018-09-23T23:34:16.531Z,3.00
2018-09-23T23:36:45.164Z,3.30
2018-09-23T23:39:13.821Z,3.63
2018-09-23T23:41:42.481Z,2.80
2018-09-23T23:44:25.796Z,3.30
2018-09-23T23:46:54.497Z,3.40
2018-09-23T23:49:23.158Z,2.83
2018-09-23T23:51:51.815Z,3.20
2018-09-23T23:54:20.451Z,3.10
2018-09-23T23:56:49.080Z,3.00
2018-09-23T23:59:17.741Z,2.57
